Carrollton, GA

2:52 AM EST on November 12, 2019 (GMT -0500)
West Georgia Regional-Gray

Weather History for KCTJ - September, 2019

Change the Weather History Date:

Wednesday, September 25, 2019

  Actual Average Record
Temperature  
Mean Temperature 71 °F -  
Max Temperature 89 °F 78 °F 93 °F (2016)
Min Temperature 53 °F 56 °F 41 °F (1983)
Cooling Degree Days 6    
Growing Degree Days 21 (Base 50)    
Moisture  
Dew Point 58 °F    
Average Humidity 65    
Maximum Humidity 92    
Minimum Humidity 32    
Precipitation  
Precipitation 0.00 in - - ()
Sea Level Pressure  
Sea Level Pressure 29.97 in    
Wind  
Wind Speed 1 mph (NW)    
Max Wind Speed 15 mph    
Max Gust Speed 21 mph    
Visibility 10 miles    
Events      
Averages and records for this station are not official NWS values.
T = Trace of Precipitation, MM = Missing Value Source: NWS Daily Summary

Daily Weather History Graph

Daily Weather History Graph

Search for Another Location

Airport or City:

Astronomy

Sep. 25, 2019 Rise Set
Actual Time 7:30 AM EDT 7:33 PM EDT
Civil Twilight 7:05 AM EDT 7:58 PM EDT
Nautical Twilight 6:36 AM EDT 8:27 PM EDT
Astronomical Twilight 6:07 AM EDT 8:56 PM EDT
Moon 3:38 AM EDT (9/25) 5:51 PM EDT (9/25)
Length of Visible Light 12h 52m
Length of Day
12h 02m
Waning Crescent, 14% of the Moon is Illuminated
Sep 25
Waning Crescent
Sep 28
New
Oct 5
First Quarter
Oct 13
Full
Oct 21
Last Quarter

Hourly Weather History & Observations

Time (EDT) Temp. Heat Index Dew Point Humidity Pressure Visibility Wind Dir Wind Speed Gust Speed Precip Events Conditions
12:15 AM 62.1 °F - 53.4 °F 73% 29.95 in 10.0 mi Calm Calm - N/A   Clear
12:35 AM 61.7 °F - 54.0 °F 76% 29.95 in 10.0 mi Calm Calm - N/A   Clear
12:55 AM 61.2 °F - 52.9 °F 74% 29.94 in 10.0 mi Calm Calm - N/A   Clear
1:15 AM 61.2 °F - 52.3 °F 73% 29.94 in 10.0 mi Calm Calm - N/A   Clear
1:35 AM 60.3 °F - 52.5 °F 76% 29.94 in 10.0 mi Calm Calm - N/A   Clear
1:55 AM 60.1 °F - 53.2 °F 78% 29.94 in 10.0 mi Calm Calm - N/A   Clear
2:15 AM 59.2 °F - 52.7 °F 79% 29.94 in 10.0 mi Calm Calm - N/A   Clear
2:35 AM 58.5 °F - 52.3 °F 80% 29.94 in 10.0 mi Calm Calm - N/A   Clear
2:55 AM 58.5 °F - 53.4 °F 83% 29.94 in 10.0 mi Calm Calm - N/A   Clear
3:15 AM 57.9 °F - 53.1 °F 84% 29.94 in 10.0 mi Calm Calm - N/A   Clear
3:35 AM 58.5 °F - 52.9 °F 82% 29.94 in 10.0 mi Calm Calm - N/A   Clear
3:55 AM 57.2 °F - 52.9 °F 85% 29.93 in 10.0 mi Calm Calm - N/A   Clear
4:15 AM 57.0 °F - 51.8 °F 83% 29.94 in 10.0 mi Calm Calm - N/A   Clear
4:35 AM 56.8 °F - 51.8 °F 83% 29.94 in 10.0 mi Calm Calm - N/A   Clear
4:55 AM 56.8 °F - 52.0 °F 84% 29.95 in 10.0 mi Calm Calm - N/A   Clear
5:15 AM 56.1 °F - 52.2 °F 87% 29.95 in 10.0 mi Calm Calm - N/A   Clear
5:35 AM 54.7 °F - 51.6 °F 89% 29.96 in 10.0 mi Calm Calm - N/A   Clear
5:55 AM 54.7 °F - 51.8 °F 90% 29.96 in 10.0 mi Calm Calm - N/A   Clear
6:15 AM 54.1 °F - 51.6 °F 91% 29.97 in 10.0 mi Calm Calm - N/A   Clear
6:35 AM 54.7 °F - 51.1 °F 88% 29.98 in 10.0 mi Calm Calm - N/A   Clear
6:55 AM 54.3 °F - 51.1 °F 89% 29.98 in 10.0 mi Calm Calm - N/A   Clear
7:15 AM 54.0 °F - 51.4 °F 91% 29.99 in 10.0 mi Calm Calm - N/A   Clear
7:35 AM 53.2 °F - 51.1 °F 92% 29.99 in 10.0 mi Calm Calm - N/A   Clear
7:55 AM 53.6 °F - 51.4 °F 92% 30.00 in 10.0 mi Calm Calm - N/A   Clear
8:15 AM 55.0 °F - 51.6 °F 88% 30.01 in 10.0 mi Calm Calm - N/A   Clear
8:35 AM 57.4 °F - 53.4 °F 87% 30.01 in 10.0 mi Calm Calm - N/A   Clear
8:55 AM 61.7 °F - 54.5 °F 77% 30.02 in 10.0 mi Calm Calm - N/A   Clear
9:15 AM 65.1 °F - 55.9 °F 72% 30.02 in 10.0 mi Calm Calm - N/A   Clear
9:35 AM 69.1 °F - 55.8 °F 62% 30.02 in 10.0 mi Calm Calm - N/A   Clear
9:55 AM 72.1 °F - 55.2 °F 55% 30.02 in 10.0 mi Calm Calm - N/A   Clear
10:15 AM 74.7 °F - 55.8 °F 52% 30.02 in 10.0 mi Calm Calm - N/A   Clear
10:35 AM 77.0 °F - 56.1 °F 48% 30.03 in 10.0 mi NW 3.5 mph - N/A   Clear
10:55 AM 79.0 °F - 54.9 °F 43% 30.02 in 10.0 mi NNW 4.6 mph - N/A   Clear
11:15 AM 80.2 °F - 50.7 °F 36% 30.03 in 10.0 mi NW 5.8 mph - N/A   Clear
11:35 AM 81.3 °F - 50.4 °F 34% 30.03 in 10.0 mi NNW 4.6 mph - N/A   Clear
11:55 AM 82.2 °F - 49.3 °F 32% 30.02 in 10.0 mi WNW 5.8 mph - N/A   Clear
12:15 PM 83.1 °F - 50.9 °F 33% 30.02 in 10.0 mi WNW 5.8 mph - N/A   Clear
12:35 PM 83.8 °F 82.4 °F 53.4 °F 35% 30.01 in 10.0 mi WNW 5.8 mph - N/A   Clear
12:55 PM 84.2 °F 83.0 °F 55.6 °F 37% 30.01 in 10.0 mi WNW 6.9 mph - N/A   Scattered Clouds
1:15 PM 85.5 °F 84.8 °F 58.3 °F 40% 30.00 in 10.0 mi WNW 6.9 mph 19.6 mph N/A   Scattered Clouds
1:35 PM 86.0 °F 85.4 °F 59.4 °F 40% 29.99 in 10.0 mi NNW 13.8 mph 18.4 mph N/A   Clear
1:55 PM 86.7 °F 86.5 °F 60.6 °F 41% 29.98 in 10.0 mi NNW 10.4 mph - N/A   Clear
2:15 PM 87.3 °F 87.5 °F 61.9 °F 42% 29.97 in 10.0 mi NNW 15.0 mph 20.7 mph N/A   Scattered Clouds
2:35 PM 87.4 °F 87.7 °F 62.1 °F 42% 29.96 in 10.0 mi NNW 8.1 mph - N/A   Scattered Clouds
2:55 PM 87.8 °F 88.2 °F 62.1 °F 42% 29.95 in 10.0 mi NW 8.1 mph - N/A   Scattered Clouds
3:15 PM 88.5 °F 88.9 °F 62.1 °F 41% 29.95 in 10.0 mi NNW 10.4 mph - N/A   Scattered Clouds
3:35 PM 88.7 °F 89.1 °F 62.2 °F 41% 29.94 in 10.0 mi West 4.6 mph - N/A   Clear
3:55 PM 88.7 °F 89.1 °F 62.4 °F 41% 29.94 in 10.0 mi NNW 8.1 mph - N/A   Clear
4:15 PM 88.3 °F 88.9 °F 62.6 °F 42% 29.94 in 10.0 mi WNW 4.6 mph - N/A   Clear
4:35 PM 87.8 °F 88.5 °F 63.0 °F 43% 29.94 in 10.0 mi NW 8.1 mph - N/A   Clear
4:55 PM 88.9 °F 89.7 °F 63.1 °F 42% 29.94 in 10.0 mi West 5.8 mph - N/A   Scattered Clouds
5:15 PM 89.1 °F 90.0 °F 63.1 °F 42% 29.94 in 10.0 mi WNW 5.8 mph - N/A   Scattered Clouds
5:35 PM 87.1 °F 87.8 °F 63.0 °F 44% 29.94 in 10.0 mi WNW 3.5 mph - N/A   Scattered Clouds
5:55 PM 87.1 °F 88.0 °F 63.1 °F 45% 29.94 in 10.0 mi NW 4.6 mph - N/A   Scattered Clouds
6:15 PM 87.3 °F 88.0 °F 63.0 °F 44% 29.93 in 10.0 mi Calm Calm - N/A   Clear
6:35 PM 86.7 °F 87.5 °F 63.1 °F 45% 29.93 in 10.0 mi Calm Calm - N/A   Clear
6:55 PM 86.4 °F 87.6 °F 64.0 °F 47% 29.93 in 10.0 mi Calm Calm - N/A   Clear
7:15 PM 83.1 °F 84.8 °F 65.1 °F 54% 29.93 in 10.0 mi Calm Calm - N/A   Clear
7:35 PM 79.9 °F - 66.6 °F 64% 29.93 in 10.0 mi Calm Calm - N/A   Clear
7:55 PM 78.1 °F - 66.7 °F 68% 29.94 in 10.0 mi Calm Calm - N/A   Clear
8:15 PM 76.3 °F - 66.6 °F 72% 29.95 in 10.0 mi Calm Calm - N/A   Clear
8:35 PM 75.2 °F - 66.0 °F 73% 29.95 in 10.0 mi Calm Calm - N/A   Clear
8:55 PM 73.9 °F - 66.2 °F 77% 29.95 in 10.0 mi Calm Calm - N/A   Clear
9:15 PM 73.9 °F - 65.5 °F 75% 29.96 in 10.0 mi Calm Calm - N/A   Clear
9:35 PM 72.7 °F - 65.1 °F 77% 29.97 in 10.0 mi Calm Calm - N/A   Clear
10:15 PM 71.1 °F - 65.5 °F 82% 29.98 in 10.0 mi Calm Calm - N/A   Clear
10:35 PM 70.3 °F - 65.5 °F 85% 29.97 in 10.0 mi Calm Calm - N/A   Clear
10:55 PM 70.0 °F - 65.5 °F 86% 29.98 in 10.0 mi Calm Calm - N/A   Clear
11:15 PM 69.8 °F - 65.3 °F 86% 29.98 in 10.0 mi Calm Calm - N/A   Clear
11:35 PM 69.4 °F - 64.9 °F 86% 29.98 in 10.0 mi Calm Calm - N/A   Clear
11:55 PM 68.9 °F - 65.1 °F 88% 29.98 in 10.0 mi Calm Calm - N/A   Clear